createdAt,value
2023-05-13T00:01:23.656Z,10.30
2023-05-13T00:03:51.504Z,10.30
2023-05-13T00:06:18.848Z,10.30
2023-05-13T00:08:46.044Z,10.30
2023-05-13T00:11:13.180Z,10.30
2023-05-13T00:13:40.249Z,10.30
2023-05-13T00:16:07.212Z,10.30
2023-05-13T00:18:34.200Z,10.20
2023-05-13T00:21:01.247Z,10.20
2023-05-13T00:23:28.152Z,10.20
2023-05-13T00:25:55.138Z,10.20
2023-05-13T00:28:22.141Z,10.20
2023-05-13T00:30:49.243Z,10.20
2023-05-13T00:33:18.585Z,10.20
2023-05-13T00:35:45.556Z,10.20
2023-05-13T00:38:12.547Z,10.20
2023-05-13T00:40:39.738Z,10.20
2023-05-13T00:43:06.828Z,10.20
2023-05-13T00:45:33.807Z,10.20
2023-05-13T00:48:00.990Z,10.20
2023-05-13T00:50:27.967Z,10.30
2023-05-13T00:52:57.317Z,10.30
2023-05-13T00:55:24.295Z,10.30
2023-05-13T00:57:51.254Z,10.30
2023-05-13T01:00:19.224Z,10.30
2023-05-13T01:02:49.482Z,10.20
2023-05-13T01:05:16.617Z,10.20
2023-05-13T01:07:53.429Z,10.20
2023-05-13T01:10:27.262Z,10.20
2023-05-13T01:12:57.046Z,10.10
2023-05-13T01:15:26.174Z,10.10
2023-05-13T01:18:12.020Z,10.10
2023-05-13T01:20:42.565Z,10.10
2023-05-13T01:23:10.882Z,10.10
2023-05-13T01:25:38.479Z,10.10
2023-05-13T01:28:05.675Z,10.00
2023-05-13T01:30:34.034Z,10.00
2023-05-13T01:33:01.260Z,10.10
2023-05-13T01:35:29.658Z,10.00
2023-05-13T01:37:58.233Z,10.00
2023-05-13T01:40:32.695Z,10.00
2023-05-13T01:43:05.483Z,10.00
2023-05-13T01:45:33.517Z,10.00
2023-05-13T01:48:01.559Z,10.00
2023-05-13T01:50:38.033Z,10.00
2023-05-13T01:53:06.320Z,10.00
2023-05-13T01:55:33.315Z,10.00
2023-05-13T01:58:02.827Z,10.00
2023-05-13T02:00:29.943Z,9.90
2023-05-13T02:02:56.996Z,9.90
2023-05-13T02:05:24.026Z,10.00
2023-05-13T02:07:51.410Z,9.90
2023-05-13T02:10:18.381Z,9.90
2023-05-13T02:12:45.343Z,9.90
2023-05-13T02:15:12.443Z,9.90
2023-05-13T02:17:39.407Z,9.90
2023-05-13T02:20:07.245Z,9.90
2023-05-13T02:22:35.656Z,9.80
2023-05-13T02:25:03.924Z,9.90
2023-05-13T02:27:31.202Z,9.90
2023-05-13T02:29:58.224Z,9.80
2023-05-13T02:32:25.582Z,9.80
2023-05-13T02:34:52.553Z,9.80
2023-05-13T02:37:21.199Z,9.80
2023-05-13T02:39:57.470Z,9.80
2023-05-13T02:42:24.404Z,9.70
2023-05-13T02:44:51.420Z,9.70
2023-05-13T02:47:18.724Z,9.70
2023-05-13T02:49:45.949Z,9.70
2023-05-13T02:52:12.961Z,9.70
2023-05-13T02:54:40.052Z,9.70
2023-05-13T02:57:07.405Z,9.70
2023-05-13T02:59:34.466Z,9.70
2023-05-13T03:02:01.429Z,9.70
2023-05-13T03:04:28.332Z,9.70
2023-05-13T03:06:55.536Z,9.70
2023-05-13T03:09:22.461Z,9.70
2023-05-13T03:11:49.364Z,9.70
2023-05-13T03:14:16.305Z,9.70
2023-05-13T03:16:44.867Z,9.70
2023-05-13T03:19:12.584Z,9.70
2023-05-13T03:21:39.630Z,9.80
2023-05-13T03:24:09.323Z,9.70
2023-05-13T03:26:36.300Z,9.80
2023-05-13T03:29:03.309Z,9.70
2023-05-13T03:31:30.598Z,9.70
2023-05-13T03:33:59.774Z,9.70
2023-05-13T03:36:27.176Z,9.70
2023-05-13T03:38:54.616Z,9.70
2023-05-13T03:41:21.783Z,9.70
2023-05-13T03:43:49.465Z,9.70
2023-05-13T03:46:17.084Z,9.70
2023-05-13T03:48:44.428Z,9.70
2023-05-13T03:51:11.483Z,9.70
2023-05-13T03:53:39.270Z,9.70
2023-05-13T03:56:06.457Z,9.70
2023-05-13T03:58:33.458Z,9.70
2023-05-13T04:01:00.456Z,9.70
2023-05-13T04:03:27.506Z,9.70
2023-05-13T04:05:54.566Z,9.60
2023-05-13T04:08:21.554Z,9.60
2023-05-13T04:10:49.362Z,9.70
2023-05-13T04:13:16.383Z,9.60
2023-05-13T04:15:43.500Z,9.60
2023-05-13T04:18:10.814Z,9.60
2023-05-13T04:20:38.164Z,9.60
2023-05-13T04:23:05.206Z,9.60
2023-05-13T04:25:32.255Z,9.60
2023-05-13T04:27:59.196Z,9.60
2023-05-13T04:30:31.743Z,9.60
2023-05-13T04:32:58.740Z,9.50
2023-05-13T04:35:25.793Z,9.50
2023-05-13T04:37:56.999Z,9.50
2023-05-13T04:40:24.370Z,9.40
2023-05-13T04:42:55.154Z,9.40
2023-05-13T04:45:34.130Z,9.40
2023-05-13T04:48:01.297Z,9.40
2023-05-13T04:50:28.336Z,9.40
2023-05-13T04:52:56.695Z,9.40
2023-05-13T04:55:25.978Z,9.40
2023-05-13T04:57:54.992Z,9.40
2023-05-13T05:00:22.473Z,9.40
2023-05-13T05:02:51.247Z,9.40
2023-05-13T05:05:18.653Z,9.40
2023-05-13T05:07:46.451Z,9.40
2023-05-13T05:10:15.366Z,9.40
2023-05-13T05:12:47.111Z,9.40
2023-05-13T05:15:16.928Z,9.40
2023-05-13T05:17:47.108Z,9.40
2023-05-13T05:20:14.405Z,9.40
2023-05-13T05:22:42.352Z,9.40
2023-05-13T05:25:11.703Z,9.40
2023-05-13T05:27:39.002Z,9.40
2023-05-13T05:30:07.015Z,9.40
2023-05-13T05:32:35.712Z,9.40
2023-05-13T05:35:04.429Z,9.40
2023-05-13T05:37:32.942Z,9.40
2023-05-13T05:40:00.202Z,9.40
2023-05-13T05:42:28.034Z,9.40
2023-05-13T05:44:54.954Z,9.40
2023-05-13T05:47:22.014Z,9.40
2023-05-13T05:49:49.021Z,9.40
2023-05-13T05:52:16.399Z,9.50
2023-05-13T05:54:43.905Z,9.50
2023-05-13T05:57:11.132Z,9.50
2023-05-13T05:59:38.050Z,9.50
2023-05-13T06:02:05.188Z,9.50
2023-05-13T06:04:32.740Z,9.50
2023-05-13T06:06:59.753Z,9.40
2023-05-13T06:09:27.325Z,9.40
2023-05-13T06:11:54.899Z,9.50
2023-05-13T06:14:22.019Z,9.40
2023-05-13T06:16:49.001Z,9.40
2023-05-13T06:19:16.825Z,9.40
2023-05-13T06:21:45.143Z,9.40
2023-05-13T06:24:15.211Z,9.40
2023-05-13T06:26:42.117Z,9.40
2023-05-13T06:29:09.085Z,9.40
2023-05-13T06:31:36.121Z,9.40
2023-05-13T06:34:03.088Z,9.40
2023-05-13T06:36:30.032Z,9.40
2023-05-13T06:38:57.008Z,9.40
2023-05-13T06:41:24.927Z,9.40
2023-05-13T06:43:55.466Z,9.40
2023-05-13T06:46:23.525Z,9.40
2023-05-13T06:48:52.511Z,9.50
2023-05-13T06:51:19.884Z,9.40
2023-05-13T06:53:47.317Z,9.40
2023-05-13T06:56:14.228Z,9.40
2023-05-13T06:58:41.223Z,9.40
2023-05-13T07:01:20.741Z,9.50
2023-05-13T07:03:50.788Z,9.50
2023-05-13T07:06:17.747Z,9.50
2023-05-13T07:08:44.607Z,9.50
2023-05-13T07:11:11.480Z,9.50
2023-05-13T07:13:39.263Z,9.60
2023-05-13T07:16:06.260Z,9.60
2023-05-13T07:18:33.395Z,9.60
2023-05-13T07:21:00.328Z,9.70
2023-05-13T07:23:27.275Z,9.70
2023-05-13T07:25:54.459Z,9.70
2023-05-13T07:28:21.514Z,9.70
2023-05-13T07:30:48.496Z,9.80
2023-05-13T07:33:15.740Z,9.80
2023-05-13T07:35:42.706Z,9.80
2023-05-13T07:38:10.579Z,9.80
2023-05-13T07:40:37.855Z,9.80
2023-05-13T07:43:04.803Z,9.90
2023-05-13T07:45:32.237Z,9.90
2023-05-13T07:47:59.256Z,10.00
2023-05-13T07:50:29.274Z,10.00
2023-05-13T07:52:56.359Z,10.00
2023-05-13T07:55:23.671Z,10.10
2023-05-13T07:57:50.700Z,10.10
2023-05-13T08:00:17.800Z,10.10
2023-05-13T08:02:45.172Z,10.10
2023-05-13T08:05:12.522Z,10.20
2023-05-13T08:07:39.489Z,10.20
2023-05-13T08:10:06.756Z,10.20
2023-05-13T08:12:33.709Z,10.20
2023-05-13T08:15:01.126Z,10.20
2023-05-13T08:17:28.081Z,10.30
2023-05-13T08:19:55.219Z,10.30
2023-05-13T08:22:22.160Z,10.40
2023-05-13T08:24:49.043Z,10.40
2023-05-13T08:27:16.149Z,10.40
2023-05-13T08:29:43.007Z,10.50
2023-05-13T08:32:10.047Z,10.50
2023-05-13T08:34:37.053Z,10.60
2023-05-13T08:37:04.117Z,10.60
2023-05-13T08:39:31.075Z,10.60
2023-05-13T08:41:58.248Z,10.70
2023-05-13T08:44:28.824Z,10.70
2023-05-13T08:47:02.120Z,10.80
2023-05-13T08:49:29.136Z,10.80
2023-05-13T08:51:55.994Z,10.90
2023-05-13T08:54:24.131Z,11.00
2023-05-13T08:56:53.286Z,11.00
2023-05-13T08:59:20.456Z,11.00
2023-05-13T09:01:48.887Z,11.00
2023-05-13T09:04:16.417Z,11.00
2023-05-13T09:06:49.466Z,11.00
2023-05-13T09:09:16.557Z,11.00
2023-05-13T09:11:44.795Z,11.00
2023-05-13T09:14:12.866Z,11.00
2023-05-13T09:16:39.836Z,11.10
2023-05-13T09:19:08.115Z,11.10
2023-05-13T09:21:36.563Z,11.10
2023-05-13T09:24:11.470Z,11.10
2023-05-13T09:26:39.020Z,11.10
2023-05-13T09:29:19.635Z,11.20
2023-05-13T09:31:49.004Z,11.20
2023-05-13T09:34:25.223Z,11.20
2023-05-13T09:36:56.093Z,11.30
2023-05-13T09:39:23.091Z,11.30
2023-05-13T09:41:49.990Z,11.40
2023-05-13T09:44:17.027Z,11.40
2023-05-13T09:46:44.023Z,11.40
2023-05-13T09:49:11.158Z,11.50
2023-05-13T09:51:38.481Z,11.60
2023-05-13T09:54:12.588Z,11.60
2023-05-13T09:56:40.059Z,11.50
2023-05-13T09:59:06.988Z,11.60
2023-05-13T10:01:35.216Z,11.50
2023-05-13T10:04:03.293Z,11.60
2023-05-13T10:06:30.708Z,11.60
2023-05-13T10:08:58.730Z,11.60
2023-05-13T10:11:27.340Z,11.70
2023-05-13T10:13:59.343Z,11.70
2023-05-13T10:16:27.871Z,11.80
2023-05-13T10:18:55.159Z,11.90
2023-05-13T10:21:22.723Z,11.80
2023-05-13T10:23:52.315Z,11.90
2023-05-13T10:26:20.444Z,11.90
2023-05-13T10:28:47.916Z,12.00
2023-05-13T10:31:15.010Z,12.00
2023-05-13T10:33:42.051Z,12.00
2023-05-13T10:36:27.676Z,12.10
2023-05-13T10:38:57.358Z,12.10
2023-05-13T10:41:24.215Z,12.20
2023-05-13T10:43:56.897Z,12.20
2023-05-13T10:46:23.904Z,12.20
2023-05-13T10:48:54.949Z,12.40
2023-05-13T10:51:24.167Z,12.40
2023-05-13T10:53:52.153Z,12.50
2023-05-13T10:56:29.388Z,12.50
2023-05-13T10:59:00.292Z,12.70
2023-05-13T11:01:30.901Z,12.80
2023-05-13T11:03:59.349Z,12.70
2023-05-13T11:06:30.631Z,12.80
2023-05-13T11:08:57.593Z,12.80
2023-05-13T11:11:27.141Z,12.90
2023-05-13T11:14:08.330Z,13.00
2023-05-13T11:16:36.299Z,13.00
2023-05-13T11:19:04.126Z,13.40
2023-05-13T11:21:32.396Z,13.50
2023-05-13T11:24:01.697Z,13.80
2023-05-13T11:26:41.248Z,14.10
2023-05-13T11:29:09.177Z,14.70
2023-05-13T11:31:45.599Z,15.20
2023-05-13T11:34:19.488Z,15.60
2023-05-13T11:36:50.660Z,15.90
2023-05-13T11:39:18.765Z,16.30
2023-05-13T11:41:46.782Z,16.50
2023-05-13T11:44:14.783Z,16.80
2023-05-13T11:46:54.418Z,17.20
2023-05-13T11:49:40.487Z,17.50
2023-05-13T11:52:07.428Z,17.80
2023-05-13T11:54:46.700Z,18.20
2023-05-13T11:57:20.990Z,18.80
2023-05-13T11:59:52.125Z,19.20
2023-05-13T12:02:23.562Z,19.80
2023-05-13T12:04:51.554Z,20.20
2023-05-13T12:07:22.288Z,20.60
2023-05-13T12:09:50.072Z,21.10
2023-05-13T12:12:17.715Z,21.40
2023-05-13T12:14:46.264Z,21.80
2023-05-13T12:17:14.039Z,22.40
2023-05-13T12:19:41.276Z,22.50
2023-05-13T12:22:08.171Z,22.60
2023-05-13T12:24:35.193Z,22.70
2023-05-13T12:27:08.223Z,23.10
2023-05-13T12:29:41.017Z,23.10
2023-05-13T12:37:10.213Z,23.90
2023-05-13T12:42:05.091Z,24.10
2023-05-13T12:44:32.305Z,24.30
2023-05-13T12:47:01.188Z,24.40
2023-05-13T12:51:56.907Z,24.50
2023-05-13T12:54:23.981Z,24.70
2023-05-13T12:56:50.986Z,24.90
2023-05-13T12:59:19.203Z,24.70
2023-05-13T13:01:48.246Z,25.10
2023-05-13T13:46:02.022Z,23.10
2023-05-13T13:48:29.017Z,22.90
2023-05-13T13:50:55.961Z,23.00
2023-05-13T13:53:23.222Z,22.50
2023-05-13T13:55:50.364Z,22.50
2023-05-13T13:58:17.383Z,22.30
2023-05-13T14:00:44.907Z,22.10
2023-05-13T14:03:12.186Z,21.80
2023-05-13T14:05:39.244Z,21.80
2023-05-13T14:08:06.416Z,21.70
2023-05-13T14:10:33.424Z,21.40
2023-05-13T14:13:00.546Z,21.60
2023-05-13T14:15:30.207Z,21.60
2023-05-13T14:17:57.303Z,21.40
2023-05-13T14:20:25.063Z,21.00
2023-05-13T14:22:52.038Z,21.10
2023-05-13T14:25:18.977Z,20.90
2023-05-13T14:27:46.070Z,20.90
2023-05-13T14:30:13.192Z,20.90
2023-05-13T14:32:42.512Z,20.80
2023-05-13T14:35:09.701Z,20.60
2023-05-13T14:37:36.685Z,20.40
2023-05-13T14:40:04.028Z,20.60
2023-05-13T14:42:30.999Z,20.40
2023-05-13T14:44:57.900Z,20.20
2023-05-13T14:47:24.816Z,20.40
2023-05-13T14:49:51.714Z,20.20
2023-05-13T14:52:18.638Z,20.10
2023-05-13T14:54:45.514Z,20.10
2023-05-13T14:57:12.542Z,19.80
2023-05-13T14:59:39.425Z,19.90
2023-05-13T15:02:06.394Z,19.70
2023-05-13T15:04:33.314Z,19.50
2023-05-13T15:07:01.668Z,19.40
2023-05-13T15:09:28.565Z,19.30
2023-05-13T15:11:55.468Z,19.20
2023-05-13T15:14:26.101Z,19.20
2023-05-13T15:16:53.339Z,19.10
2023-05-13T15:19:20.439Z,18.80
2023-05-13T15:21:47.295Z,18.80
2023-05-13T15:24:14.202Z,18.80
2023-05-13T15:26:41.065Z,18.60
2023-05-13T15:29:07.931Z,18.60
2023-05-13T15:31:34.980Z,18.60
2023-05-13T15:34:03.250Z,18.60
2023-05-13T15:36:30.175Z,18.40
2023-05-13T15:38:57.138Z,18.40
2023-05-13T15:41:24.088Z,18.30
2023-05-13T15:43:50.983Z,18.40
2023-05-13T15:46:18.010Z,18.20
2023-05-13T15:48:44.995Z,18.00
2023-05-13T15:51:11.884Z,18.10
2023-05-13T15:53:38.785Z,17.90
2023-05-13T15:56:06.044Z,17.80
2023-05-13T15:58:32.906Z,17.70
2023-05-13T16:00:59.817Z,17.80
2023-05-13T16:03:26.763Z,17.80
2023-05-13T16:05:53.925Z,17.60
2023-05-13T16:08:20.891Z,17.60
2023-05-13T16:10:47.748Z,17.50
2023-05-13T16:13:14.665Z,17.50
2023-05-13T16:15:41.650Z,17.40
2023-05-13T16:18:08.695Z,17.40
2023-05-13T16:20:35.698Z,17.50
2023-05-13T16:23:02.636Z,17.40
2023-05-13T16:25:29.609Z,17.50
2023-05-13T16:27:56.798Z,17.40
2023-05-13T16:30:24.000Z,17.40
2023-05-13T16:32:54.677Z,17.20
2023-05-13T16:35:21.814Z,17.30
2023-05-13T16:37:49.178Z,17.20
2023-05-13T16:40:16.091Z,17.10
2023-05-13T16:42:43.081Z,17.10
2023-05-13T16:45:10.180Z,17.10
2023-05-13T16:47:37.080Z,17.00
2023-05-13T16:50:13.960Z,17.00
2023-05-13T16:52:40.905Z,17.00
2023-05-13T16:55:08.036Z,16.90
2023-05-13T16:57:34.964Z,16.90
2023-05-13T17:00:01.996Z,16.80
2023-05-13T17:02:29.092Z,16.90
2023-05-13T17:04:56.095Z,16.80
2023-05-13T17:07:22.984Z,16.90
2023-05-13T17:09:49.887Z,16.80
2023-05-13T17:12:16.946Z,16.80
2023-05-13T17:14:43.987Z,16.80
2023-05-13T17:17:14.216Z,16.70
2023-05-13T17:19:43.703Z,16.80
2023-05-13T17:22:10.630Z,16.70
2023-05-13T17:24:38.665Z,16.80
2023-05-13T17:27:08.674Z,16.80
2023-05-13T17:29:35.617Z,16.60
2023-05-13T17:32:02.582Z,16.70
2023-05-13T17:34:29.569Z,16.60
2023-05-13T17:36:56.482Z,16.70
2023-05-13T17:39:23.362Z,16.60
2023-05-13T17:41:50.473Z,16.60
2023-05-13T17:44:17.388Z,16.60
2023-05-13T17:46:44.287Z,16.40
2023-05-13T17:49:11.451Z,16.40
2023-05-13T17:51:38.469Z,16.30
2023-05-13T17:54:05.629Z,16.30
2023-05-13T17:56:32.572Z,16.30
2023-05-13T17:58:59.416Z,16.20
2023-05-13T18:01:26.346Z,16.30
2023-05-13T18:03:53.224Z,16.20
2023-05-13T18:06:20.089Z,16.30
2023-05-13T18:08:47.097Z,16.20
2023-05-13T18:11:13.950Z,16.20
2023-05-13T18:13:40.993Z,16.10
2023-05-13T18:16:09.220Z,16.20
2023-05-13T18:18:37.120Z,16.10
2023-05-13T18:21:04.220Z,16.00
2023-05-13T18:23:32.710Z,16.00
2023-05-13T18:25:59.837Z,15.90
2023-05-13T18:28:26.780Z,15.90
2023-05-13T18:30:53.743Z,15.70
2023-05-13T18:33:21.775Z,15.70
2023-05-13T18:35:48.851Z,15.70
2023-05-13T18:38:15.936Z,15.70
2023-05-13T18:40:42.828Z,15.60
2023-05-13T18:43:09.807Z,15.60
2023-05-13T18:45:36.769Z,15.50
2023-05-13T18:48:04.485Z,15.60
2023-05-13T18:50:31.400Z,15.60
2023-05-13T18:52:58.376Z,15.50
2023-05-13T18:55:25.395Z,15.50
2023-05-13T18:57:52.354Z,15.40
2023-05-13T19:00:19.476Z,15.30
2023-05-13T19:02:46.596Z,15.40
2023-05-13T19:05:13.674Z,15.30
2023-05-13T19:07:40.670Z,15.40
2023-05-13T19:10:07.647Z,15.40
2023-05-13T19:12:34.602Z,15.20
2023-05-13T19:15:01.632Z,15.30
2023-05-13T19:17:28.630Z,15.20
2023-05-13T19:19:57.204Z,15.10
2023-05-13T19:22:24.168Z,15.10
2023-05-13T19:24:51.058Z,15.00
2023-05-13T19:27:18.000Z,15.00
2023-05-13T19:29:44.930Z,14.90
2023-05-13T19:32:11.788Z,14.80
2023-05-13T19:34:38.699Z,14.90
2023-05-13T19:37:06.434Z,14.70
2023-05-13T19:39:33.397Z,14.70
2023-05-13T19:42:00.569Z,14.70
2023-05-13T19:44:28.670Z,14.70
2023-05-13T19:46:56.679Z,14.60
2023-05-13T19:49:25.041Z,14.60
2023-05-13T19:51:52.258Z,14.50
2023-05-13T19:54:19.347Z,14.50
2023-05-13T19:56:46.356Z,14.30
2023-05-13T19:59:13.256Z,14.30
2023-05-13T20:01:40.240Z,14.40
2023-05-13T20:04:08.991Z,14.30
2023-05-13T20:06:36.730Z,14.20
2023-05-13T20:09:03.792Z,14.20
2023-05-13T20:11:31.409Z,14.20
2023-05-13T20:13:59.356Z,14.10
2023-05-13T20:16:26.590Z,14.20
2023-05-13T20:18:53.570Z,14.10
2023-05-13T20:21:20.625Z,14.10
2023-05-13T20:23:47.553Z,14.00
2023-05-13T20:26:14.488Z,14.00
2023-05-13T20:28:41.407Z,13.90
2023-05-13T20:31:08.377Z,14.00
2023-05-13T20:33:35.703Z,13.80
2023-05-13T20:36:02.702Z,13.80
2023-05-13T20:38:29.791Z,13.70
2023-05-13T20:40:56.840Z,13.80
2023-05-13T20:43:23.786Z,13.60
2023-05-13T20:45:51.157Z,13.60
2023-05-13T20:48:18.099Z,13.60
2023-05-13T20:50:44.996Z,13.60
2023-05-13T20:53:11.904Z,13.50
2023-05-13T20:55:38.854Z,13.50
2023-05-13T20:58:05.840Z,13.50
2023-05-13T21:00:32.766Z,13.40
2023-05-13T21:02:59.864Z,13.40
2023-05-13T21:05:26.869Z,13.40
2023-05-13T21:07:54.136Z,13.40
2023-05-13T21:10:21.611Z,13.20
2023-05-13T21:12:48.836Z,13.20
2023-05-13T21:15:16.713Z,13.20
2023-05-13T21:17:43.787Z,13.20
2023-05-13T21:20:11.027Z,13.10
2023-05-13T21:22:38.022Z,13.10
2023-05-13T21:25:05.162Z,13.00
2023-05-13T21:27:32.049Z,13.00
2023-05-13T21:29:58.880Z,13.00
2023-05-13T21:32:25.830Z,13.00
2023-05-13T21:34:52.740Z,12.90
2023-05-13T21:37:19.592Z,13.00
2023-05-13T21:39:46.514Z,12.90
2023-05-13T21:42:13.845Z,12.80
2023-05-13T21:44:41.218Z,12.80
2023-05-13T21:47:08.176Z,12.80
2023-05-13T21:49:35.200Z,12.80
2023-05-13T21:52:02.150Z,12.70
2023-05-13T21:54:29.044Z,12.70
2023-05-13T21:56:55.975Z,12.60
2023-05-13T21:59:22.859Z,12.70
2023-05-13T22:01:49.743Z,12.60
2023-05-13T22:04:16.657Z,12.60
2023-05-13T22:06:43.523Z,12.60
2023-05-13T22:09:10.886Z,12.60
2023-05-13T22:11:37.816Z,12.50
2023-05-13T22:14:05.178Z,12.50
2023-05-13T22:16:32.128Z,12.40
2023-05-13T22:19:00.276Z,12.40
2023-05-13T22:21:27.469Z,12.50
2023-05-13T22:23:54.491Z,12.40
2023-05-13T22:26:21.996Z,12.40
2023-05-13T22:28:48.941Z,12.30
2023-05-13T22:31:16.827Z,12.30
2023-05-13T22:33:46.704Z,12.30
2023-05-13T22:36:13.988Z,12.30
2023-05-13T22:38:41.943Z,12.30
2023-05-13T22:41:08.822Z,12.30
2023-05-13T22:43:35.848Z,12.20
2023-05-13T22:46:02.924Z,12.10
2023-05-13T22:48:29.908Z,12.10
2023-05-13T22:50:59.671Z,12.10
2023-05-13T22:53:26.678Z,12.10
2023-05-13T22:55:53.691Z,12.10
2023-05-13T22:58:21.009Z,12.00
2023-05-13T23:00:48.766Z,12.00
2023-05-13T23:03:15.819Z,12.00
2023-05-13T23:05:42.747Z,11.90
2023-05-13T23:08:09.672Z,12.00
2023-05-13T23:10:36.633Z,11.90
2023-05-13T23:13:06.604Z,11.90
2023-05-13T23:15:33.614Z,11.90
2023-05-13T23:18:00.623Z,11.80
2023-05-13T23:20:27.676Z,11.90
2023-05-13T23:22:55.444Z,11.80
2023-05-13T23:25:22.412Z,11.80
2023-05-13T23:27:50.965Z,11.70
2023-05-13T23:30:18.089Z,11.70
2023-05-13T23:32:44.977Z,11.70
2023-05-13T23:35:12.254Z,11.70
2023-05-13T23:37:39.178Z,11.70
2023-05-13T23:40:06.621Z,11.70
2023-05-13T23:42:33.545Z,11.60
2023-05-13T23:45:00.517Z,11.60
2023-05-13T23:47:27.403Z,11.60
2023-05-13T23:49:54.355Z,11.50
2023-05-13T23:52:21.295Z,11.60
2023-05-13T23:54:48.184Z,11.50
2023-05-13T23:57:15.113Z,11.50
2023-05-13T23:59:42.075Z,11.40
